Ascutney, VT (05030)

8:04 PM EST on January 30, 2015 (GMT -0500)
Ascutney Farm Stand | Change Station
CLOSE
Current Station
Personal Weather Station
Location: Windsor, VT
Elevation: 427 ft
Nearby Weather Stations

Elev 427 ft 43.41 °N, 72.41 °W | Updated 4 minutes ago

Overcast
Overcast
18.3 °F
Feels Like 9 °F
N
7.3
Wind Variable Wind from NNW

Today
High -- | Low -- °F
--% Chance of Precip.
Yesterday
High -- | Low -- °F
Precip. -- in
7:08 AM 4:58 PM
Waxing Gibbous, 86% visible
Pressure 29.94 in
Visibility 10.0 miles
Clouds Mostly Cloudy 3200 ft
Mostly Cloudy 4200 ft
Overcast 5500 ft
Windchill 9 °F
Dew Point 9 °F
Humidity 67%
Rainfall 0.00 in
Snow Depth Not available.
UV 0 out of 12
Pollen .10 out of 12
Air Quality Not available.
Flu Activity Not available.
METAR KVSF 310054Z AUTO 31004KT 10SM BKN032 BKN042 OVC055 M08/M14 A2991 RMK AO2 SLP138 T10831139 TSNO

More Conditions Fewer Conditions

Pressure 29.94 in
Visibility 10.0 miles
Clouds Mostly Cloudy 3200 ft
Mostly Cloudy 4200 ft
Overcast 5500 ft
Windchill 9 °F
Dew Point 9 °F
Humidity 67%
Rainfall 0.00 in
Snow Depth Not available.
UV 0 out of 12
Pollen .10 out of 12
Air Quality Not available.
Flu Activity Not available.
METAR KVSF 310054Z AUTO 31004KT 10SM BKN032 BKN042 OVC055 M08/M14 A2991 RMK AO2 SLP138 T10831139 TSNO

More Conditions Fewer Conditions

10-Day Weather Forecast

Almanac

Astronomy

Jan. 30, 2015 Rise Set
Actual Time
Civil Twilight
Nautical Twilight
Astronomical Twilight
Moon
Length of Visible Light
Length of Day
Tomorrow will be .
, % of the Moon is Illuminated

Today's Extremes

State Highs State Lows

Community

WunderPhotos

Upload Photos

1,791,950 photos uploaded!

WunderBlogs® & News

Nearby

Air Quality

  Air Quality AQ Index Pollutant
Not available.

Snow Depth

Station Depth Elevation

Earthquake Activity

City Distance Mag. Time & Date
Minimum magnitude displayed is 2.5.

Coastal Water Temperatures

Place Temperature

Nearby Weather Stations